Millbrae, California
Current Conditions -  °F | °C
As of 7:18 PM on Friday 19 Dec 2014 (Local Time) from KSFO Reporting Station
Overcast Overcast  
Wind Chill: 57°   Ceiling: 900
Heat Index: 57°   Visibility: 8mi
Dew Point: 57°   Wind: 7mph
Humidity: 100%   Direction: 130°SE
Pressure: 30.13"   Gusts: NA
Location:  37.6°N, 122.39°W
Report Text: KSFO 200318Z 13006KT 8SM BKN009 OVC013 14/14 A3013 RMK AO2
Loading
Personal Weather Stations






























Interactive Weather Map New forecast layout! Learn more

10-Day Weather Forecast

Advertisements
Track Severe Weather on mobile